createdAt,value
2016-08-05T00:00:37.658Z,0
2016-08-05T00:01:37.665Z,0
2016-08-05T00:02:37.641Z,0
2016-08-05T00:03:37.630Z,0
2016-08-05T00:04:37.629Z,0
2016-08-05T00:05:37.631Z,0
2016-08-05T00:06:38.361Z,0
2016-08-05T00:07:37.641Z,0
2016-08-05T00:08:37.663Z,0
2016-08-05T00:09:37.619Z,0
2016-08-05T00:10:37.595Z,0
2016-08-05T00:11:37.603Z,0
2016-08-05T00:12:37.614Z,0
2016-08-05T00:13:37.591Z,0
2016-08-05T00:14:37.601Z,0
2016-08-05T00:15:37.598Z,0
2016-08-05T00:16:37.605Z,0
2016-08-05T00:17:37.572Z,0
2016-08-05T00:18:38.286Z,0
2016-08-05T00:19:37.581Z,0
2016-08-05T00:20:37.558Z,0
2016-08-05T00:21:38.274Z,0
2016-08-05T00:22:37.584Z,0
2016-08-05T00:23:37.552Z,0
2016-08-05T00:24:37.580Z,0
2016-08-05T00:25:37.606Z,0
2016-08-05T00:26:37.639Z,0
2016-08-05T00:27:37.550Z,0
2016-08-05T00:28:37.530Z,0
2016-08-05T00:29:37.530Z,0
2016-08-05T00:30:38.232Z,0
2016-08-05T00:31:37.519Z,0
2016-08-05T00:32:37.524Z,0
2016-08-05T00:33:37.537Z,0
2016-08-05T00:34:37.503Z,0
2016-08-05T00:35:37.523Z,0
2016-08-05T00:36:37.483Z,0
2016-08-05T00:37:37.490Z,0
2016-08-05T00:38:37.464Z,0
2016-08-05T00:39:37.478Z,0
2016-08-05T00:40:37.489Z,0
2016-08-05T00:41:37.486Z,0
2016-08-05T00:42:37.527Z,0
2016-08-05T00:43:37.506Z,0
2016-08-05T00:44:38.221Z,0
2016-08-05T00:45:37.468Z,0
2016-08-05T00:46:37.449Z,0
2016-08-05T00:47:37.480Z,0
2016-08-05T00:48:37.439Z,0
2016-08-05T00:49:37.451Z,0
2016-08-05T00:50:37.480Z,0
2016-08-05T00:51:37.421Z,0
2016-08-05T00:52:37.403Z,0
2016-08-05T00:53:37.409Z,0
2016-08-05T00:54:37.435Z,0
2016-08-05T00:55:37.417Z,0
2016-08-05T00:56:37.396Z,0
2016-08-05T00:57:37.401Z,0
2016-08-05T00:58:37.410Z,0
2016-08-05T00:59:37.380Z,0
2016-08-05T01:00:37.380Z,0
2016-08-05T01:01:37.375Z,0
2016-08-05T01:02:37.411Z,0
2016-08-05T01:03:37.371Z,0
2016-08-05T01:04:37.381Z,0
2016-08-05T01:05:37.391Z,0
2016-08-05T01:06:37.363Z,0
2016-08-05T01:07:37.363Z,0
2016-08-05T01:08:37.370Z,0
2016-08-05T01:09:37.384Z,0
2016-08-05T01:10:37.415Z,0
2016-08-05T01:11:37.351Z,0
2016-08-05T01:12:37.328Z,0
2016-08-05T01:13:37.393Z,0
2016-08-05T01:14:37.384Z,0
2016-08-05T01:15:38.224Z,0
2016-08-05T01:16:37.323Z,0
2016-08-05T01:17:37.344Z,0
2016-08-05T01:18:37.303Z,0
2016-08-05T01:19:37.283Z,0
2016-08-05T01:20:37.271Z,0
2016-08-05T01:21:38.091Z,0
2016-08-05T01:22:37.288Z,0
2016-08-05T01:23:37.364Z,0
2016-08-05T01:24:37.276Z,0
2016-08-05T01:25:37.295Z,0
2016-08-05T01:26:37.322Z,0
2016-08-05T01:27:37.284Z,0
2016-08-05T01:28:37.327Z,0
2016-08-05T01:29:37.232Z,0
2016-08-05T01:30:37.344Z,0
2016-08-05T01:31:37.295Z,0
2016-08-05T01:32:37.448Z,0
2016-08-05T01:33:37.254Z,0
2016-08-05T01:34:38.129Z,0
2016-08-05T01:35:37.278Z,0
2016-08-05T01:36:37.209Z,0
2016-08-05T01:37:37.199Z,0
2016-08-05T01:38:37.284Z,0
2016-08-05T01:39:37.210Z,0
2016-08-05T01:40:37.246Z,0
2016-08-05T01:41:37.185Z,0
2016-08-05T01:42:37.270Z,0
2016-08-05T01:43:37.154Z,0
2016-08-05T01:44:37.168Z,0
2016-08-05T01:45:37.236Z,0
2016-08-05T01:46:38.211Z,0
2016-08-05T01:47:37.212Z,0
2016-08-05T01:48:37.162Z,0
2016-08-05T01:49:37.175Z,0
2016-08-05T01:50:37.175Z,0
2016-08-05T01:51:37.151Z,0
2016-08-05T01:52:37.160Z,0
2016-08-05T01:53:37.135Z,0
2016-08-05T01:54:37.208Z,0
2016-08-05T01:55:37.299Z,0
2016-08-05T01:56:37.146Z,0
2016-08-05T01:57:37.126Z,0
2016-08-05T01:58:37.175Z,0
2016-08-05T01:59:37.199Z,0
2016-08-05T02:00:37.114Z,0
2016-08-05T02:01:37.148Z,0
2016-08-05T02:02:37.133Z,0
2016-08-05T02:03:37.873Z,0
2016-08-05T02:04:37.177Z,0
2016-08-05T02:05:37.163Z,0
2016-08-05T02:06:37.120Z,0
2016-08-05T02:07:37.103Z,0
2016-08-05T02:08:37.100Z,0
2016-08-05T02:09:37.121Z,0
2016-08-05T02:10:37.152Z,0
2016-08-05T02:11:37.092Z,0
2016-08-05T02:12:37.099Z,0
2016-08-05T02:13:37.243Z,0
2016-08-05T02:14:37.071Z,0
2016-08-05T02:15:37.069Z,0
2016-08-05T02:16:37.036Z,0
2016-08-05T02:17:37.041Z,0
2016-08-05T02:18:37.026Z,0
2016-08-05T02:19:37.004Z,0
2016-08-05T02:20:37.179Z,0
2016-08-05T02:21:37.030Z,0
2016-08-05T02:22:37.058Z,0
2016-08-05T02:23:36.998Z,0
2016-08-05T02:24:37.095Z,0
2016-08-05T02:26:37.075Z,0
2016-08-05T02:27:37.176Z,0
2016-08-05T02:28:37.034Z,0
2016-08-05T02:29:37.060Z,0
2016-08-05T02:30:37.003Z,0
2016-08-05T02:31:36.976Z,0
2016-08-05T02:32:36.969Z,0
2016-08-05T02:33:36.999Z,0
2016-08-05T02:34:36.967Z,0
2016-08-05T02:35:37.146Z,0
2016-08-05T02:36:36.982Z,0
2016-08-05T02:37:36.944Z,0
2016-08-05T02:38:36.922Z,0
2016-08-05T02:39:36.999Z,0
2016-08-05T02:40:37.039Z,0
2016-08-05T02:41:37.011Z,0
2016-08-05T02:42:38.143Z,0
2016-08-05T02:43:36.897Z,0
2016-08-05T02:44:36.928Z,0
2016-08-05T02:45:37.070Z,0
2016-08-05T02:46:36.926Z,0
2016-08-05T02:47:36.928Z,0
2016-08-05T02:48:36.972Z,0
2016-08-05T02:49:36.975Z,0
2016-08-05T02:50:36.875Z,0
2016-08-05T02:51:36.855Z,0
2016-08-05T02:52:36.871Z,0
2016-08-05T02:53:37.562Z,0
2016-08-05T02:54:37.724Z,0
2016-08-05T02:56:51.716Z,0
2016-08-05T02:57:36.852Z,0
2016-08-05T02:58:36.876Z,0
2016-08-05T02:59:36.832Z,0
2016-08-05T03:00:36.801Z,0
2016-08-05T03:01:36.794Z,0
2016-08-05T03:02:36.880Z,0
2016-08-05T03:03:37.543Z,0
2016-08-05T03:04:36.800Z,0
2016-08-05T03:05:36.795Z,0
2016-08-05T03:06:36.869Z,0
2016-08-05T03:07:36.839Z,0
2016-08-05T03:08:36.781Z,0
2016-08-05T03:09:36.807Z,0
2016-08-05T03:11:36.772Z,0
2016-08-05T03:12:37.504Z,0
2016-08-05T03:13:36.760Z,0
2016-08-05T03:14:36.783Z,0
2016-08-05T03:15:36.765Z,0
2016-08-05T03:16:36.722Z,0
2016-08-05T03:17:36.758Z,0
2016-08-05T03:18:36.799Z,0
2016-08-05T03:19:36.757Z,0
2016-08-05T03:20:36.721Z,0
2016-08-05T03:21:36.748Z,0
2016-08-05T03:22:36.695Z,0
2016-08-05T03:23:36.704Z,0
2016-08-05T03:24:36.772Z,0
2016-08-05T03:26:36.726Z,0
2016-08-05T03:27:36.712Z,0
2016-08-05T03:28:36.676Z,0
2016-08-05T03:29:36.702Z,0
2016-08-05T03:30:36.673Z,0
2016-08-05T03:31:36.652Z,0
2016-08-05T03:32:36.694Z,0
2016-08-05T03:33:36.717Z,0
2016-08-05T03:34:36.644Z,0
2016-08-05T03:35:36.669Z,0
2016-08-05T03:36:36.682Z,0
2016-08-05T03:37:36.647Z,0
2016-08-05T03:38:36.637Z,0
2016-08-05T03:39:36.647Z,0
2016-08-05T03:41:36.732Z,0
2016-08-05T03:42:36.838Z,0
2016-08-05T03:43:36.581Z,0
2016-08-05T03:44:36.719Z,0
2016-08-05T03:45:36.600Z,0
2016-08-05T03:46:36.670Z,0
2016-08-05T03:47:36.596Z,0
2016-08-05T03:48:36.624Z,0
2016-08-05T03:49:36.549Z,0
2016-08-05T03:50:36.642Z,0
2016-08-05T03:51:36.590Z,0
2016-08-05T03:52:36.554Z,0
2016-08-05T03:53:36.581Z,0
2016-08-05T03:54:37.232Z,0
2016-08-05T03:56:36.629Z,0
2016-08-05T03:57:36.583Z,0
2016-08-05T03:58:36.558Z,0
2016-08-05T03:59:36.523Z,0
2016-08-05T04:00:36.511Z,0
2016-08-05T04:01:36.512Z,0
2016-08-05T04:02:36.534Z,0
2016-08-05T04:03:36.524Z,0
2016-08-05T04:04:36.458Z,0
2016-08-05T04:05:36.480Z,0
2016-08-05T04:06:36.491Z,0
2016-08-05T04:07:36.514Z,0
2016-08-05T04:08:36.510Z,0
2016-08-05T04:09:36.461Z,0
2016-08-05T04:11:36.448Z,0
2016-08-05T04:12:36.579Z,0
2016-08-05T04:13:36.625Z,0
2016-08-05T04:14:36.416Z,0
2016-08-05T04:15:36.566Z,0
2016-08-05T04:16:37.172Z,0
2016-08-05T04:17:36.432Z,5
2016-08-05T04:18:36.414Z,5
2016-08-05T04:19:36.473Z,5
2016-08-05T04:20:36.441Z,5
2016-08-05T04:21:37.091Z,5
2016-08-05T04:22:37.143Z,5
2016-08-05T04:23:36.410Z,5
2016-08-05T04:24:36.602Z,5
2016-08-05T04:25:36.389Z,5
2016-08-05T04:26:36.413Z,5
2016-08-05T04:27:36.363Z,5
2016-08-05T04:28:37.137Z,5
2016-08-05T04:29:36.660Z,5
2016-08-05T04:30:36.385Z,5
2016-08-05T04:31:36.459Z,10
2016-08-05T04:32:36.380Z,10
2016-08-05T04:33:36.404Z,10
2016-08-05T04:34:36.495Z,10
2016-08-05T04:35:36.353Z,10
2016-08-05T04:36:36.299Z,10
2016-08-05T04:37:36.332Z,10
2016-08-05T04:38:36.362Z,10
2016-08-05T04:39:37.015Z,10
2016-08-05T04:40:36.310Z,10
2016-08-05T04:41:36.327Z,10
2016-08-05T04:42:36.341Z,10
2016-08-05T04:43:36.347Z,10
2016-08-05T04:44:36.337Z,10
2016-08-05T04:45:36.375Z,10
2016-08-05T04:46:36.444Z,10
2016-08-05T04:47:36.430Z,10
2016-08-05T04:48:36.370Z,10
2016-08-05T04:49:36.282Z,10
2016-08-05T04:50:36.351Z,10
2016-08-05T04:51:36.239Z,10
2016-08-05T04:52:36.210Z,10
2016-08-05T04:53:36.347Z,10
2016-08-05T04:54:36.285Z,10
2016-08-05T04:55:36.342Z,10
2016-08-05T04:56:36.223Z,10
2016-08-05T04:57:36.198Z,10
2016-08-05T04:58:36.235Z,15
2016-08-05T04:59:36.231Z,15
2016-08-05T05:00:36.919Z,10
2016-08-05T05:01:36.265Z,15
2016-08-05T05:02:36.258Z,10
2016-08-05T05:03:36.933Z,15
2016-08-05T05:04:36.211Z,15
2016-08-05T05:05:36.194Z,10
2016-08-05T05:06:36.156Z,10
2016-08-05T05:07:36.446Z,10
2016-08-05T05:08:36.181Z,15
2016-08-05T05:09:36.240Z,15
2016-08-05T05:10:36.145Z,15
2016-08-05T05:11:36.120Z,15
2016-08-05T05:12:36.164Z,15
2016-08-05T05:13:36.851Z,15
2016-08-05T05:14:36.147Z,15
2016-08-05T05:15:36.140Z,15
2016-08-05T05:16:36.126Z,15
2016-08-05T05:17:36.104Z,15
2016-08-05T05:18:36.084Z,15
2016-08-05T05:19:36.321Z,15
2016-08-05T05:20:36.861Z,15
2016-08-05T05:21:36.118Z,20
2016-08-05T05:22:36.135Z,20
2016-08-05T05:23:36.775Z,20
2016-08-05T05:24:36.081Z,20
2016-08-05T05:25:36.127Z,20
2016-08-05T05:26:36.044Z,20
2016-08-05T05:27:36.055Z,20
2016-08-05T05:28:36.084Z,20
2016-08-05T05:29:36.141Z,20
2016-08-05T05:30:36.125Z,25
2016-08-05T05:31:36.819Z,25
2016-08-05T05:32:36.001Z,25
2016-08-05T05:33:36.712Z,30
2016-08-05T05:34:50.948Z,30
2016-08-05T05:35:36.001Z,35
2016-08-05T05:36:35.979Z,35
2016-08-05T05:37:35.988Z,35
2016-08-05T05:38:36.018Z,40
2016-08-05T05:39:36.063Z,45
2016-08-05T05:40:36.747Z,50
2016-08-05T05:41:36.049Z,55
2016-08-05T05:42:36.122Z,55
2016-08-05T05:43:36.018Z,60
2016-08-05T05:44:35.965Z,65
2016-08-05T05:45:36.031Z,70
2016-08-05T05:46:35.979Z,70
2016-08-05T05:47:35.949Z,65
2016-08-05T05:48:35.954Z,65
2016-08-05T05:49:38.275Z,65
2016-08-05T05:50:35.921Z,65
2016-08-05T05:51:35.950Z,65
2016-08-05T05:52:35.984Z,65
2016-08-05T05:53:35.955Z,60
2016-08-05T05:54:36.029Z,60
2016-08-05T05:55:35.931Z,70
2016-08-05T05:56:35.958Z,75
2016-08-05T05:57:36.668Z,75
2016-08-05T05:58:35.956Z,75
2016-08-05T05:59:35.967Z,65
2016-08-05T06:00:35.898Z,65
2016-08-05T06:01:35.886Z,80
2016-08-05T06:02:35.928Z,85
2016-08-05T06:03:35.902Z,95
2016-08-05T06:04:35.876Z,100
2016-08-05T06:05:35.893Z,115
2016-08-05T06:06:35.993Z,135
2016-08-05T06:07:35.941Z,155
2016-08-05T06:08:35.862Z,175
2016-08-05T06:09:35.848Z,185
2016-08-05T06:10:35.860Z,185
2016-08-05T06:11:35.839Z,195
2016-08-05T06:12:35.938Z,215
2016-08-05T06:13:35.974Z,215
2016-08-05T06:14:35.878Z,225
2016-08-05T06:15:35.856Z,235
2016-08-05T06:16:35.962Z,230
2016-08-05T06:17:35.905Z,240
2016-08-05T06:18:36.025Z,245
2016-08-05T06:19:35.797Z,255
2016-08-05T06:20:35.782Z,245
2016-08-05T06:21:35.895Z,235
2016-08-05T06:22:35.844Z,235
2016-08-05T06:23:35.930Z,230
2016-08-05T06:24:35.863Z,225
2016-08-05T06:25:35.901Z,210
2016-08-05T06:26:35.909Z,210
2016-08-05T06:27:35.869Z,205
2016-08-05T06:28:35.852Z,195
2016-08-05T06:29:35.848Z,185
2016-08-05T06:30:35.855Z,180
2016-08-05T06:31:35.808Z,170
2016-08-05T06:32:35.775Z,165
2016-08-05T06:33:35.834Z,150
2016-08-05T06:34:35.783Z,145
2016-08-05T06:35:35.796Z,150
2016-08-05T06:36:35.821Z,145
2016-08-05T06:37:36.488Z,135
2016-08-05T06:38:35.856Z,140
2016-08-05T06:39:35.855Z,145
2016-08-05T06:40:36.570Z,150
2016-08-05T06:41:35.783Z,145
2016-08-05T06:42:35.762Z,125
2016-08-05T06:43:35.760Z,120
2016-08-05T06:44:35.751Z,140
2016-08-05T06:45:35.762Z,165
2016-08-05T06:46:35.770Z,210
2016-08-05T06:47:35.782Z,235
2016-08-05T06:48:35.791Z,255
2016-08-05T06:49:35.750Z,270
2016-08-05T06:50:36.447Z,280
2016-08-05T06:51:35.738Z,270
2016-08-05T06:52:35.748Z,270
2016-08-05T06:53:35.760Z,260
2016-08-05T06:54:35.812Z,255
2016-08-05T06:55:35.729Z,235
2016-08-05T06:56:35.974Z,205
2016-08-05T06:57:35.800Z,185
2016-08-05T06:58:35.702Z,200
2016-08-05T06:59:35.759Z,210
2016-08-05T07:00:35.753Z,210
2016-08-05T07:01:35.719Z,210
2016-08-05T07:02:35.723Z,200
2016-08-05T07:03:35.789Z,175
2016-08-05T07:04:35.793Z,160
2016-08-05T07:05:35.739Z,150
2016-08-05T07:06:35.757Z,150
2016-08-05T07:07:36.962Z,165
2016-08-05T07:08:35.893Z,170
2016-08-05T07:09:35.775Z,160
2016-08-05T07:10:35.684Z,160
2016-08-05T07:11:35.680Z,170
2016-08-05T07:12:35.699Z,175
2016-08-05T07:13:35.700Z,190
2016-08-05T07:14:35.709Z,195
2016-08-05T07:15:36.268Z,200
2016-08-05T07:16:35.723Z,205
2016-08-05T07:17:35.785Z,205
2016-08-05T07:18:35.749Z,200
2016-08-05T07:19:35.750Z,195
2016-08-05T07:20:35.650Z,190
2016-08-05T07:21:35.654Z,185
2016-08-05T07:22:35.665Z,190
2016-08-05T07:23:35.678Z,175
2016-08-05T07:24:35.943Z,155
2016-08-05T07:25:35.720Z,140
2016-08-05T07:26:35.695Z,125
2016-08-05T07:27:37.209Z,120
2016-08-05T07:28:35.717Z,125
2016-08-05T07:29:35.724Z,115
2016-08-05T07:30:35.654Z,115
2016-08-05T07:31:35.725Z,120
2016-08-05T07:32:35.690Z,115
2016-08-05T07:33:35.650Z,125
2016-08-05T07:34:35.659Z,150
2016-08-05T07:35:35.649Z,150
2016-08-05T07:36:35.795Z,150
2016-08-05T07:37:35.688Z,140
2016-08-05T07:38:35.610Z,175
2016-08-05T07:39:36.207Z,185
2016-08-05T07:40:35.632Z,145
2016-08-05T07:41:35.698Z,165
2016-08-05T07:42:35.710Z,210
2016-08-05T07:43:35.684Z,210
2016-08-05T07:44:35.637Z,210
2016-08-05T07:45:35.682Z,220
2016-08-05T07:46:35.712Z,250
2016-08-05T07:47:35.663Z,290
2016-08-05T07:48:35.656Z,315
2016-08-05T07:49:35.663Z,375
2016-08-05T07:50:35.626Z,435
2016-08-05T07:51:35.722Z,460
2016-08-05T07:52:35.687Z,485
2016-08-05T07:53:35.644Z,515
2016-08-05T07:54:35.735Z,575
2016-08-05T07:55:35.630Z,535
2016-08-05T07:56:35.720Z,505
2016-08-05T07:57:35.631Z,455
2016-08-05T07:58:35.635Z,480
2016-08-05T07:59:35.636Z,500
2016-08-05T08:00:35.657Z,495
2016-08-05T08:01:35.674Z,430
2016-08-05T08:02:35.611Z,365
2016-08-05T08:03:35.687Z,360
2016-08-05T08:04:35.629Z,310
2016-08-05T08:05:35.641Z,275
2016-08-05T08:06:35.650Z,285
2016-08-05T08:07:35.691Z,255
2016-08-05T08:08:36.392Z,275
2016-08-05T08:09:35.628Z,285
2016-08-05T08:10:35.615Z,345
2016-08-05T08:11:35.600Z,385
2016-08-05T08:12:35.579Z,420
2016-08-05T08:13:35.590Z,450
2016-08-05T08:14:35.597Z,405
2016-08-05T08:15:35.771Z,365
2016-08-05T08:16:35.630Z,320
2016-08-05T08:17:37.016Z,330
2016-08-05T08:18:36.614Z,420
2016-08-05T08:19:35.885Z,455
2016-08-05T08:20:35.745Z,410
2016-08-05T08:21:35.679Z,440
2016-08-05T08:22:35.592Z,440
2016-08-05T08:23:35.582Z,395
2016-08-05T08:24:35.773Z,430
2016-08-05T08:25:36.090Z,435
2016-08-05T08:27:35.933Z,385
2016-08-05T08:28:35.603Z,315
2016-08-05T08:29:35.669Z,230
2016-08-05T08:30:35.618Z,210
2016-08-05T08:31:35.658Z,205
2016-08-05T08:32:35.620Z,175
2016-08-05T08:33:35.885Z,230
2016-08-05T08:34:35.589Z,345
2016-08-05T08:35:35.574Z,415
2016-08-05T08:36:35.580Z,490
2016-08-05T08:37:35.533Z,565
2016-08-05T08:38:35.603Z,615
2016-08-05T08:39:35.589Z,680
2016-08-05T08:40:35.595Z,735
2016-08-05T08:41:35.664Z,770
2016-08-05T08:42:35.643Z,765
2016-08-05T08:43:35.587Z,795
2016-08-05T08:44:35.610Z,820
2016-08-05T08:45:35.542Z,825
2016-08-05T08:46:35.521Z,805
2016-08-05T08:47:35.532Z,790
2016-08-05T08:48:35.524Z,775
2016-08-05T08:49:35.538Z,750
2016-08-05T08:50:35.548Z,710
2016-08-05T08:51:35.559Z,660
2016-08-05T08:52:35.633Z,600
2016-08-05T08:53:35.734Z,590
2016-08-05T08:54:35.635Z,545
2016-08-05T08:55:35.618Z,465
2016-08-05T08:56:35.645Z,360
2016-08-05T08:57:35.670Z,270
2016-08-05T08:58:35.683Z,245
2016-08-05T08:59:35.557Z,250
2016-08-05T09:00:35.541Z,220
2016-08-05T09:01:35.598Z,240
2016-08-05T09:02:36.086Z,315
2016-08-05T09:03:35.604Z,350
2016-08-05T09:04:35.574Z,410
2016-08-05T09:05:35.666Z,490
2016-08-05T09:06:35.589Z,460
2016-08-05T09:07:35.686Z,400
2016-08-05T09:08:35.601Z,420
2016-08-05T09:09:35.562Z,415
2016-08-05T09:10:35.611Z,370
2016-08-05T09:11:35.612Z,330
2016-08-05T09:12:35.540Z,290
2016-08-05T09:13:35.602Z,260
2016-08-05T09:14:35.529Z,275
2016-08-05T09:15:35.591Z,325
2016-08-05T09:16:35.554Z,355
2016-08-05T09:17:35.581Z,395
2016-08-05T09:18:35.521Z,465
2016-08-05T09:19:35.565Z,530
2016-08-05T09:20:35.589Z,555
2016-08-05T09:21:35.539Z,505
2016-08-05T09:22:35.586Z,500
2016-08-05T09:23:35.397Z,480
2016-08-05T09:24:35.466Z,520
2016-08-05T09:25:35.500Z,550
2016-08-05T09:26:35.517Z,585
2016-08-05T09:27:35.501Z,540
2016-08-05T09:28:35.946Z,490
2016-08-05T09:29:35.497Z,505
2016-08-05T09:30:35.503Z,455
2016-08-05T09:31:35.984Z,445
2016-08-05T09:32:35.557Z,385
2016-08-05T09:33:35.539Z,295
2016-08-05T09:34:35.522Z,230
2016-08-05T09:35:35.380Z,165
2016-08-05T09:36:35.480Z,145
2016-08-05T09:37:35.514Z,135
2016-08-05T09:38:35.452Z,135
2016-08-05T09:39:35.491Z,130
2016-08-05T09:40:35.596Z,150
2016-08-05T09:41:35.553Z,165
2016-08-05T09:42:35.571Z,180
2016-08-05T09:43:35.564Z,235
2016-08-05T09:44:35.505Z,295
2016-08-05T09:45:35.500Z,350
2016-08-05T09:46:35.354Z,480
2016-08-05T09:47:35.371Z,640
2016-08-05T09:48:35.380Z,675
2016-08-05T09:49:35.436Z,545
2016-08-05T09:50:35.443Z,435
2016-08-05T09:51:35.937Z,310
2016-08-05T09:52:35.481Z,285
2016-08-05T09:53:35.459Z,255
2016-08-05T09:54:36.197Z,265
2016-08-05T09:55:35.508Z,315
2016-08-05T09:57:35.484Z,485
2016-08-05T09:58:35.376Z,515
2016-08-05T09:59:35.366Z,480
2016-08-05T10:00:35.496Z,400
2016-08-05T10:01:35.432Z,355
2016-08-05T10:02:35.447Z,195
2016-08-05T10:03:35.428Z,130
2016-08-05T10:04:35.489Z,110
2016-08-05T10:05:35.454Z,130
2016-08-05T10:06:35.457Z,180
2016-08-05T10:07:35.337Z,295
2016-08-05T10:08:35.368Z,485
2016-08-05T10:09:35.326Z,635
2016-08-05T10:10:35.449Z,725
2016-08-05T10:12:35.475Z,760
2016-08-05T10:13:35.336Z,675
2016-08-05T10:14:35.425Z,600
2016-08-05T10:15:35.454Z,595
2016-08-05T10:16:35.447Z,570
2016-08-05T10:17:35.457Z,510
2016-08-05T10:18:35.443Z,405
2016-08-05T10:19:35.517Z,365
2016-08-05T10:20:35.330Z,355
2016-08-05T10:21:35.858Z,310
2016-08-05T10:22:35.298Z,305
2016-08-05T10:23:35.342Z,355
2016-08-05T10:24:35.313Z,415
2016-08-05T10:25:35.331Z,470
2016-08-05T10:27:36.133Z,505
2016-08-05T10:28:35.424Z,590
2016-08-05T10:29:35.472Z,660
2016-08-05T10:30:35.426Z,645
2016-08-05T10:31:35.442Z,665
2016-08-05T10:32:35.487Z,565
2016-08-05T10:33:35.511Z,425
2016-08-05T10:34:35.310Z,335
2016-08-05T10:35:35.291Z,295
2016-08-05T10:36:35.379Z,265
2016-08-05T10:37:35.423Z,300
2016-08-05T10:38:35.483Z,365
2016-08-05T10:39:35.392Z,445
2016-08-05T10:40:35.406Z,540
2016-08-05T10:42:35.476Z,680
2016-08-05T10:43:35.425Z,690
2016-08-05T10:44:35.468Z,690
2016-08-05T10:45:35.282Z,660
2016-08-05T10:46:35.323Z,580
2016-08-05T10:47:35.328Z,530
2016-08-05T10:48:35.337Z,550
2016-08-05T10:49:35.300Z,500
2016-08-05T10:50:35.300Z,495
2016-08-05T10:51:35.415Z,395
2016-08-05T10:52:35.435Z,285
2016-08-05T10:53:35.446Z,225
2016-08-05T10:54:35.441Z,245
2016-08-05T10:55:35.445Z,305
2016-08-05T10:56:35.414Z,370
2016-08-05T10:57:35.447Z,375
2016-08-05T10:58:35.415Z,360
2016-08-05T10:59:35.840Z,370
2016-08-05T11:00:35.351Z,420
2016-08-05T11:01:35.266Z,440
2016-08-05T11:02:35.323Z,520
2016-08-05T11:03:35.364Z,555
2016-08-05T11:04:35.435Z,545
2016-08-05T11:05:35.380Z,505
2016-08-05T11:06:35.384Z,495
2016-08-05T11:07:35.413Z,510
2016-08-05T11:08:35.839Z,525
2016-08-05T11:09:35.274Z,525
2016-08-05T11:10:35.970Z,565
2016-08-05T11:11:35.426Z,595
2016-08-05T11:12:35.292Z,530
2016-08-05T11:13:35.412Z,485
2016-08-05T11:14:35.448Z,480
2016-08-05T11:15:35.275Z,460
2016-08-05T11:16:35.381Z,335
2016-08-05T11:17:35.398Z,230
2016-08-05T11:18:35.372Z,200
2016-08-05T11:19:35.413Z,240
2016-08-05T11:20:35.379Z,375
2016-08-05T11:21:35.411Z,480
2016-08-05T11:22:35.460Z,495
2016-08-05T11:23:35.253Z,540
2016-08-05T11:24:35.259Z,530
2016-08-05T11:25:35.407Z,475
2016-08-05T11:26:35.470Z,390
2016-08-05T11:27:35.417Z,355
2016-08-05T11:28:35.339Z,305
2016-08-05T11:29:35.356Z,220
2016-08-05T11:30:35.362Z,180
2016-08-05T11:31:35.401Z,225
2016-08-05T11:32:35.375Z,300
2016-08-05T11:33:35.383Z,360
2016-08-05T11:34:35.389Z,355
2016-08-05T11:35:35.247Z,440
2016-08-05T11:36:35.389Z,460
2016-08-05T11:37:35.381Z,395
2016-08-05T11:38:35.255Z,380
2016-08-05T11:39:35.281Z,375
2016-08-05T11:40:35.291Z,350
2016-08-05T11:41:35.415Z,415
2016-08-05T11:42:35.343Z,505
2016-08-05T11:43:35.360Z,505
2016-08-05T11:44:35.357Z,450
2016-08-05T11:45:35.369Z,400
2016-08-05T11:46:35.403Z,395
2016-08-05T11:47:35.380Z,375
2016-08-05T11:48:35.233Z,375
2016-08-05T11:49:35.391Z,385
2016-08-05T11:50:35.280Z,470
2016-08-05T11:51:35.244Z,500
2016-08-05T11:52:35.242Z,565
2016-08-05T11:53:35.322Z,620
2016-08-05T11:54:35.336Z,680
2016-08-05T11:55:35.381Z,710
2016-08-05T11:56:35.341Z,730
2016-08-05T11:57:35.383Z,685
2016-08-05T11:58:35.409Z,640
2016-08-05T11:59:36.107Z,620
2016-08-05T12:00:35.276Z,580
2016-08-05T12:01:35.378Z,560
2016-08-05T12:02:35.363Z,505
2016-08-05T12:03:35.366Z,480
2016-08-05T12:04:35.443Z,470
2016-08-05T12:05:35.339Z,505
2016-08-05T12:06:35.848Z,540
2016-08-05T12:07:35.322Z,540
2016-08-05T12:08:35.336Z,585
2016-08-05T12:09:35.370Z,580
2016-08-05T12:10:35.389Z,585
2016-08-05T12:11:35.360Z,610
2016-08-05T12:12:35.354Z,595
2016-08-05T12:13:35.375Z,575
2016-08-05T12:14:35.411Z,540
2016-08-05T12:15:35.220Z,550
2016-08-05T12:16:35.350Z,530
2016-08-05T12:17:35.227Z,480
2016-08-05T12:18:35.302Z,460
2016-08-05T12:19:35.323Z,455
2016-08-05T12:20:35.338Z,455
2016-08-05T12:21:35.327Z,420
2016-08-05T12:22:35.322Z,485
2016-08-05T12:23:35.379Z,545
2016-08-05T12:24:35.388Z,565
2016-08-05T12:25:35.562Z,560
2016-08-05T12:26:35.788Z,555
2016-08-05T12:27:35.365Z,545
2016-08-05T12:28:35.225Z,530
2016-08-05T12:29:35.216Z,555
2016-08-05T12:30:35.300Z,520
2016-08-05T12:31:35.300Z,505
2016-08-05T12:32:35.293Z,525
2016-08-05T12:33:35.302Z,525
2016-08-05T12:34:35.350Z,460
2016-08-05T12:35:35.344Z,425
2016-08-05T12:36:35.363Z,415
2016-08-05T12:37:35.825Z,405
2016-08-05T12:38:35.378Z,405
2016-08-05T12:39:35.387Z,400
2016-08-05T12:40:35.256Z,400
2016-08-05T12:41:35.409Z,410
2016-08-05T12:42:35.393Z,460
2016-08-05T12:43:35.287Z,500
2016-08-05T12:44:35.340Z,535
2016-08-05T12:45:35.310Z,550
2016-08-05T12:46:35.303Z,495
2016-08-05T12:47:35.335Z,475
2016-08-05T12:48:35.315Z,485
2016-08-05T12:49:35.342Z,475
2016-08-05T12:50:35.795Z,430
2016-08-05T12:51:35.362Z,400
2016-08-05T12:52:35.388Z,370
2016-08-05T12:53:35.630Z,345
2016-08-05T12:54:35.345Z,340
2016-08-05T12:55:35.295Z,330
2016-08-05T12:56:35.780Z,365
2016-08-05T12:57:35.283Z,425
2016-08-05T12:58:35.289Z,420
2016-08-05T12:59:35.335Z,400
2016-08-05T13:00:35.335Z,335
2016-08-05T13:01:35.351Z,315
2016-08-05T13:02:35.338Z,345
2016-08-05T13:03:35.810Z,375
2016-08-05T13:04:35.346Z,395
2016-08-05T13:05:35.353Z,380
2016-08-05T13:06:35.354Z,340
2016-08-05T13:07:35.392Z,340
2016-08-05T13:08:35.294Z,345
2016-08-05T13:09:35.273Z,370
2016-08-05T13:10:35.310Z,410
2016-08-05T13:11:35.278Z,435
2016-08-05T13:12:35.308Z,445
2016-08-05T13:13:35.309Z,460
2016-08-05T13:14:35.301Z,450
2016-08-05T13:15:35.438Z,445
2016-08-05T13:16:35.318Z,400
2016-08-05T13:17:35.827Z,385
2016-08-05T13:18:35.374Z,360
2016-08-05T13:19:35.833Z,375
2016-08-05T13:20:35.244Z,395
2016-08-05T13:21:35.255Z,415
2016-08-05T13:22:35.265Z,425
2016-08-05T13:23:35.281Z,415
2016-08-05T13:24:35.337Z,425
2016-08-05T13:25:35.288Z,420
2016-08-05T13:26:35.308Z,430
2016-08-05T13:27:35.302Z,425
2016-08-05T13:28:35.295Z,425
2016-08-05T13:29:35.303Z,405
2016-08-05T13:30:35.313Z,365
2016-08-05T13:31:35.344Z,365
2016-08-05T13:32:35.319Z,380
2016-08-05T13:33:35.229Z,345
2016-08-05T13:34:35.239Z,290
2016-08-05T13:35:35.272Z,270
2016-08-05T13:36:35.258Z,290
2016-08-05T13:37:35.316Z,345
2016-08-05T13:38:35.812Z,375
2016-08-05T13:39:35.281Z,395
2016-08-05T13:40:35.402Z,375
2016-08-05T13:41:35.333Z,370
2016-08-05T13:42:35.305Z,365
2016-08-05T13:43:35.339Z,385
2016-08-05T13:44:35.347Z,390
2016-08-05T13:45:35.309Z,405
2016-08-05T13:46:35.224Z,400
2016-08-05T13:47:35.273Z,420
2016-08-05T13:48:35.237Z,435
2016-08-05T13:49:35.342Z,445
2016-08-05T13:50:35.288Z,455
2016-08-05T13:51:35.260Z,465
2016-08-05T13:52:35.349Z,490
2016-08-05T13:53:35.818Z,515
2016-08-05T13:54:35.310Z,535
2016-08-05T13:55:35.290Z,545
2016-08-05T13:56:35.794Z,545
2016-08-05T13:57:35.282Z,550
2016-08-05T13:58:35.289Z,555
2016-08-05T13:59:35.219Z,570
2016-08-05T14:00:35.288Z,580
2016-08-05T14:01:35.232Z,570
2016-08-05T14:02:35.251Z,535
2016-08-05T14:03:35.266Z,495
2016-08-05T14:04:35.297Z,475
2016-08-05T14:05:35.260Z,435
2016-08-05T14:06:35.279Z,390
2016-08-05T14:07:35.297Z,335
2016-08-05T14:08:35.327Z,280
2016-08-05T14:09:35.313Z,235
2016-08-05T14:10:35.299Z,200
2016-08-05T14:11:35.288Z,175
2016-08-05T14:12:35.329Z,165
2016-08-05T14:13:35.272Z,165
2016-08-05T14:14:35.295Z,180
2016-08-05T14:15:35.232Z,200
2016-08-05T14:16:35.274Z,210
2016-08-05T14:17:35.252Z,220
2016-08-05T14:18:35.263Z,215
2016-08-05T14:19:35.991Z,200